createdAt,value
2017-05-20T00:01:12.034Z,0
2017-05-20T00:03:35.426Z,0
2017-05-20T00:05:58.806Z,0
2017-05-20T00:08:22.203Z,0
2017-05-20T00:10:45.537Z,0
2017-05-20T00:12:46.695Z,0
2017-05-20T00:15:10.105Z,0
2017-05-20T00:17:33.503Z,0
2017-05-20T00:19:56.871Z,0
2017-05-20T00:21:58.568Z,0
2017-05-20T00:24:21.974Z,0
2017-05-20T00:26:36.955Z,0
2017-05-20T00:29:00.333Z,0
2017-05-20T00:31:01.528Z,0
2017-05-20T00:33:24.920Z,0
2017-05-20T00:35:48.308Z,0
2017-05-20T00:38:11.636Z,0
2017-05-20T00:40:34.997Z,0
2017-05-20T00:42:58.360Z,0
2017-05-20T00:45:21.732Z,0
2017-05-20T00:47:46.122Z,0
2017-05-20T00:50:09.505Z,0
2017-05-20T00:52:32.903Z,0
2017-05-20T00:54:56.283Z,0
2017-05-20T00:57:19.653Z,0
2017-05-20T00:59:29.848Z,0
2017-05-20T01:01:53.242Z,0
2017-05-20T01:04:08.221Z,0
2017-05-20T01:06:23.220Z,0
2017-05-20T01:08:46.599Z,0
2017-05-20T01:11:09.920Z,0
2017-05-20T01:13:33.315Z,0
2017-05-20T01:15:48.289Z,0
2017-05-20T01:18:11.674Z,0
2017-05-20T01:20:26.597Z,0
2017-05-20T01:22:33.167Z,0
2017-05-20T01:24:56.525Z,0
2017-05-20T01:27:11.496Z,0
2017-05-20T01:29:26.443Z,0
2017-05-20T01:31:49.783Z,0
2017-05-20T01:34:04.733Z,0
2017-05-20T01:36:28.066Z,0
2017-05-20T01:38:51.416Z,0
2017-05-20T01:41:01.073Z,0
2017-05-20T01:43:24.448Z,0
2017-05-20T01:45:39.374Z,0
2017-05-20T01:48:02.721Z,0
2017-05-20T01:50:26.046Z,0
2017-05-20T01:52:49.379Z,0
2017-05-20T01:55:12.671Z,0
2017-05-20T01:57:36.030Z,0
2017-05-20T01:59:59.396Z,0
2017-05-20T02:02:22.777Z,0
2017-05-20T02:04:46.136Z,0
2017-05-20T02:07:09.501Z,0
2017-05-20T02:09:32.861Z,0
2017-05-20T02:11:56.233Z,0
2017-05-20T02:14:19.540Z,0
2017-05-20T02:16:34.501Z,0
2017-05-20T02:18:41.032Z,0
2017-05-20T02:20:47.578Z,0
2017-05-20T02:22:54.107Z,0
2017-05-20T02:25:17.471Z,0
2017-05-20T02:27:40.842Z,0
2017-05-20T02:29:42.021Z,0
2017-05-20T02:32:05.350Z,0
2017-05-20T02:34:28.658Z,0
2017-05-20T02:36:38.827Z,0
2017-05-20T02:38:53.789Z,0
2017-05-20T02:41:17.114Z,0
2017-05-20T02:43:26.761Z,0
2017-05-20T02:45:41.700Z,0
2017-05-20T02:48:04.982Z,0
2017-05-20T02:50:11.492Z,0
2017-05-20T02:52:04.849Z,0
2017-05-20T02:54:28.178Z,0
2017-05-20T02:56:51.487Z,0
2017-05-20T02:59:14.820Z,0
2017-05-20T03:01:38.185Z,0
2017-05-20T03:04:01.509Z,0
2017-05-20T03:06:02.658Z,0
2017-05-20T03:08:25.989Z,0
2017-05-20T03:10:49.289Z,0
2017-05-20T03:13:12.603Z,0
2017-05-20T03:15:35.933Z,0
2017-05-20T03:17:59.255Z,0
2017-05-20T03:20:14.186Z,0
2017-05-20T03:22:15.355Z,0
2017-05-20T03:24:38.706Z,0
2017-05-20T03:27:02.040Z,0
2017-05-20T03:29:25.405Z,0
2017-05-20T03:31:40.351Z,0
2017-05-20T03:34:03.672Z,0
2017-05-20T03:36:27.004Z,0
2017-05-20T03:38:50.260Z,0
2017-05-20T03:41:13.591Z,0
2017-05-20T03:43:36.922Z,0
2017-05-20T03:46:00.605Z,0
2017-05-20T03:48:23.939Z,0
2017-05-20T03:50:38.879Z,0
2017-05-20T03:53:02.203Z,0
2017-05-20T03:55:08.745Z,0
2017-05-20T03:57:10.425Z,0
2017-05-20T03:59:25.390Z,0
2017-05-20T04:01:48.711Z,0
2017-05-20T04:04:12.047Z,0
2017-05-20T04:06:35.376Z,0
2017-05-20T04:08:58.720Z,0
2017-05-20T04:11:22.074Z,0
2017-05-20T04:13:45.376Z,0
2017-05-20T04:16:08.660Z,0
2017-05-20T04:18:32.037Z,0
2017-05-20T04:20:55.373Z,0
2017-05-20T04:23:18.744Z,0
2017-05-20T04:25:42.137Z,0
2017-05-20T04:28:05.539Z,0
2017-05-20T04:30:28.941Z,0
2017-05-20T04:32:43.984Z,0
2017-05-20T04:36:43.315Z,1007.33
2017-05-20T04:39:07.125Z,1007.39
2017-05-20T04:41:31.053Z,1007.28
2017-05-20T04:43:55.043Z,1007.29
2017-05-20T04:46:19.042Z,1007.44
2017-05-20T04:48:34.663Z,1007.47
2017-05-20T04:50:58.807Z,1007.54
2017-05-20T04:53:23.115Z,1007.54
2017-05-20T04:55:47.579Z,1007.58
2017-05-20T04:57:49.121Z,1007.64
2017-05-20T05:00:13.821Z,1007.68
2017-05-20T05:02:38.660Z,1007.71
2017-05-20T05:05:03.662Z,1007.82
2017-05-20T05:07:28.793Z,1007.82
2017-05-20T05:09:54.024Z,1007.92
2017-05-20T05:12:19.356Z,1007.99
2017-05-20T05:14:36.258Z,1008.05
2017-05-20T05:17:01.753Z,1008.17
2017-05-20T05:19:27.299Z,1008.17
2017-05-20T05:21:44.442Z,1008.19
2017-05-20T05:24:10.228Z,1008.23
2017-05-20T05:26:36.058Z,1008.25
2017-05-20T05:29:01.946Z,1008.25
2017-05-20T05:31:19.335Z,1008.28
2017-05-20T05:33:45.339Z,1008.33
2017-05-20T05:36:11.392Z,1008.34
2017-05-20T05:38:37.501Z,1008.43
2017-05-20T05:41:03.610Z,1008.5
2017-05-20T05:43:29.735Z,1008.5
2017-05-20T05:45:55.928Z,1008.45
2017-05-20T05:48:13.581Z,1008.55
2017-05-20T05:50:39.790Z,1008.6
2017-05-20T05:54:42.050Z,1008.63
2017-05-20T05:57:08.410Z,1008.65
2017-05-20T05:59:34.807Z,1008.68
2017-05-20T06:02:01.256Z,1008.7
2017-05-20T06:04:27.769Z,1008.66
2017-05-20T06:06:45.732Z,1008.64
2017-05-20T06:09:12.302Z,1008.63
2017-05-20T06:11:38.894Z,1008.62
2017-05-20T06:14:05.534Z,1008.75
2017-05-20T06:16:32.221Z,1008.78
2017-05-20T06:18:58.911Z,1008.82
2017-05-20T06:21:25.601Z,1008.79
2017-05-20T06:23:52.281Z,1008.86
2017-05-20T06:26:19.007Z,1008.84
2017-05-20T06:28:37.167Z,1008.83
2017-05-20T06:30:39.868Z,1008.9
2017-05-20T06:33:06.715Z,1008.96
2017-05-20T06:35:17.954Z,1009.01
2017-05-20T06:37:29.230Z,1009.04
2017-05-20T06:39:47.524Z,1009.06
2017-05-20T06:42:05.748Z,1009.08
2017-05-20T06:44:32.569Z,1009.2
2017-05-20T06:46:59.423Z,1009.11
2017-05-20T06:49:26.319Z,1009.09
2017-05-20T06:51:44.542Z,1009.13
2017-05-20T06:54:11.330Z,1009.15
2017-05-20T06:56:38.044Z,1009.11
2017-05-20T06:58:47.419Z,1009.05
2017-05-20T07:00:49.363Z,1009.07
2017-05-20T07:03:15.606Z,1009.07
2017-05-20T07:05:33.154Z,1009.05
2017-05-20T07:07:59.078Z,1009.03
2017-05-20T07:10:24.825Z,1009.06
2017-05-20T07:12:50.425Z,1009.04
2017-05-20T07:15:07.399Z,1009.01
2017-05-20T07:17:32.794Z,1009.01
2017-05-20T07:19:58.009Z,1008.96
2017-05-20T07:22:14.712Z,1008.98
2017-05-20T07:24:39.868Z,1009.03
2017-05-20T07:27:04.919Z,1009.04
2017-05-20T07:29:29.894Z,1009.06
2017-05-20T07:31:46.368Z,1009.1
2017-05-20T07:34:02.800Z,1009.04
2017-05-20T07:36:19.244Z,1009.16
2017-05-20T07:38:44.176Z,1009.25
2017-05-20T07:41:09.086Z,1009.26
2017-05-20T07:43:10.681Z,1009.26
2017-05-20T07:45:35.575Z,1009.3
2017-05-20T07:48:00.508Z,1009.37
2017-05-20T07:50:25.428Z,1009.41
2017-05-20T07:52:50.389Z,1009.43
2017-05-20T07:55:06.850Z,1009.26
2017-05-20T07:57:31.808Z,1009.5
2017-05-20T07:59:56.777Z,1009.49
2017-05-20T08:02:21.771Z,1009.27
2017-05-20T08:04:46.717Z,1009.19
2017-05-20T08:07:11.635Z,1009.15
2017-05-20T08:09:36.520Z,1009.36
2017-05-20T08:12:01.379Z,1009.46
2017-05-20T08:14:09.349Z,1009.42
2017-05-20T08:16:34.284Z,1009.4
2017-05-20T08:18:59.272Z,1009.3
2017-05-20T08:21:24.254Z,1009.22
2017-05-20T08:23:49.167Z,1009.25
2017-05-20T08:26:05.559Z,1009.45
2017-05-20T08:28:30.468Z,1009.42
2017-05-20T08:30:55.389Z,1009.41
2017-05-20T08:33:20.338Z,1009.42
2017-05-20T08:35:36.878Z,1009.42
2017-05-20T08:38:01.983Z,1009.48
2017-05-20T08:40:10.032Z,1009.52
2017-05-20T08:42:26.605Z,1009.45
2017-05-20T08:44:51.710Z,1009.44
2017-05-20T08:47:08.344Z,1009.47
2017-05-20T08:49:25.007Z,1009.45
2017-05-20T08:51:50.184Z,1009.55
2017-05-20T08:54:06.853Z,1009.62
2017-05-20T08:56:32.111Z,1009.41
2017-05-20T08:58:57.416Z,1009.59
2017-05-20T09:01:22.695Z,1009.63
2017-05-20T09:03:48.015Z,1009.65
2017-05-20T09:06:13.331Z,1009.37
2017-05-20T09:08:38.535Z,1009.7
2017-05-20T09:11:03.687Z,1009.7
2017-05-20T09:13:28.895Z,1009.72
2017-05-20T09:15:54.073Z,1009.67
2017-05-20T09:18:19.279Z,1009.73
2017-05-20T09:20:35.976Z,1009.71
2017-05-20T09:24:37.097Z,1009.67
2017-05-20T09:26:45.371Z,1009.73
2017-05-20T09:29:10.600Z,1009.7
2017-05-20T09:31:35.850Z,1009.6
2017-05-20T09:34:01.020Z,1009.53
2017-05-20T09:36:26.157Z,1009.76
2017-05-20T09:38:51.235Z,1009.72
2017-05-20T09:41:16.328Z,1009.75
2017-05-20T09:43:32.913Z,1009.52
2017-05-20T09:45:34.533Z,1009.7
2017-05-20T09:47:59.598Z,1009.73
2017-05-20T09:50:24.717Z,1009.79
2017-05-20T09:52:49.869Z,1009.59
2017-05-20T09:54:51.454Z,1009.55
2017-05-20T09:57:16.571Z,1009.77
2017-05-20T09:59:41.566Z,1009.75
2017-05-20T10:02:06.566Z,1009.57
2017-05-20T10:04:31.544Z,1009.57
2017-05-20T10:06:56.440Z,1009.68
2017-05-20T10:09:21.335Z,1009.64
2017-05-20T10:11:14.434Z,1009.62
2017-05-20T10:13:16.753Z,1009.58
2017-05-20T10:15:41.549Z,1009.68
2017-05-20T10:18:06.340Z,1009.63
2017-05-20T10:20:31.028Z,1009.67
2017-05-20T10:22:47.241Z,1009.71
2017-05-20T10:25:11.787Z,1009.71
2017-05-20T10:27:36.254Z,1009.73
2017-05-20T10:30:00.763Z,1009.83
2017-05-20T10:32:25.245Z,1009.87
2017-05-20T10:34:49.640Z,1009.93
2017-05-20T10:37:14.022Z,1009.99
2017-05-20T10:39:38.414Z,1009.97
2017-05-20T10:42:02.795Z,1009.95
2017-05-20T10:44:27.188Z,1010
2017-05-20T10:46:51.575Z,1010.02
2017-05-20T10:49:15.978Z,1010
2017-05-20T10:51:40.343Z,1010
2017-05-20T10:54:04.882Z,1010.02
2017-05-20T10:56:29.373Z,1009.94
2017-05-20T10:58:54.894Z,1009.96
2017-05-20T11:01:19.471Z,1009.98
2017-05-20T11:03:44.071Z,1010.01
2017-05-20T11:06:08.661Z,1010
2017-05-20T11:08:24.787Z,1010.05
2017-05-20T11:10:49.351Z,1010.05
2017-05-20T11:13:13.847Z,1010.12
2017-05-20T11:15:38.437Z,1010.1
2017-05-20T11:18:02.926Z,1010.13
2017-05-20T11:20:27.405Z,1010.11
2017-05-20T11:22:51.888Z,1010.18
2017-05-20T11:25:16.406Z,1010.23
2017-05-20T11:27:40.892Z,1010.26
2017-05-20T11:29:56.919Z,1010.23
2017-05-20T11:32:12.909Z,1010.2
2017-05-20T11:34:28.854Z,1010.21
2017-05-20T11:36:53.342Z,1010.26
2017-05-20T11:39:17.839Z,1010.19
2017-05-20T11:41:42.327Z,1010.21
2017-05-20T11:43:58.262Z,1010.19
2017-05-20T11:46:22.722Z,1010.21
2017-05-20T11:48:47.211Z,1010.19
2017-05-20T11:51:11.702Z,1010.17
2017-05-20T11:53:36.200Z,1010.13
2017-05-20T11:56:00.675Z,1010.09
2017-05-20T11:58:25.193Z,1010.15
2017-05-20T12:00:41.198Z,1010.11
2017-05-20T12:03:05.651Z,1010.09
2017-05-20T12:05:30.140Z,1010.06
2017-05-20T12:07:54.635Z,1010.09
2017-05-20T12:10:19.126Z,1010.08
2017-05-20T12:12:43.650Z,1010.05
2017-05-20T12:15:08.119Z,1010.08
2017-05-20T12:17:32.610Z,1010.02
2017-05-20T12:19:57.102Z,1010.07
2017-05-20T12:21:58.605Z,1010.08
2017-05-20T12:24:23.150Z,1010.1
2017-05-20T12:26:47.637Z,1010.07
2017-05-20T12:28:49.226Z,1010.17
2017-05-20T12:31:13.717Z,1010.09
2017-05-20T12:33:29.707Z,1010.15
2017-05-20T12:35:45.768Z,1010.17
2017-05-20T12:38:10.269Z,1010.17
2017-05-20T12:40:34.737Z,1010.17
2017-05-20T12:42:59.253Z,1010.18
2017-05-20T12:45:23.722Z,1010.17
2017-05-20T12:47:39.769Z,1010.2
2017-05-20T12:50:04.197Z,1010.25
2017-05-20T12:52:28.699Z,1010.28
2017-05-20T12:54:44.715Z,1010.3
2017-05-20T12:57:09.075Z,1010.29
2017-05-20T12:59:10.527Z,1010.29
2017-05-20T13:01:35.019Z,1010.33
2017-05-20T13:03:59.402Z,1010.35
2017-05-20T13:07:59.692Z,1010.34
2017-05-20T13:10:24.130Z,1010.28
2017-05-20T13:12:48.625Z,1010.33
2017-05-20T13:15:13.025Z,1010.35
2017-05-20T13:17:37.513Z,1010.36
2017-05-20T13:20:01.897Z,1010.39
2017-05-20T13:22:26.284Z,1010.43
2017-05-20T13:24:50.673Z,1010.5
2017-05-20T13:27:15.065Z,1010.48
2017-05-20T13:29:39.562Z,1010.52
2017-05-20T13:32:04.061Z,1010.5
2017-05-20T13:34:28.547Z,1010.54
2017-05-20T13:36:53.047Z,1010.54
2017-05-20T13:39:09.078Z,1010.53
2017-05-20T13:41:33.528Z,1010.54
2017-05-20T13:43:57.934Z,1010.5
2017-05-20T13:46:22.336Z,1010.57
2017-05-20T13:48:46.795Z,1010.57
2017-05-20T13:51:11.175Z,1010.65
2017-05-20T13:53:35.560Z,1010.59
2017-05-20T13:55:52.241Z,1010.6
2017-05-20T13:58:15.839Z,1010.58
2017-05-20T14:00:40.225Z,1010.65
2017-05-20T14:03:04.620Z,1010.67
2017-05-20T14:05:29.002Z,1010.67
2017-05-20T14:07:45.006Z,1010.7
2017-05-20T14:10:09.281Z,1010.69
2017-05-20T14:12:33.693Z,1010.73
2017-05-20T14:14:58.077Z,1010.74
2017-05-20T14:17:22.456Z,1010.73
2017-05-20T14:19:23.910Z,1010.69
2017-05-20T14:21:48.405Z,1010.76
2017-05-20T14:24:12.784Z,1010.76
2017-05-20T14:26:37.173Z,1010.83
2017-05-20T14:28:53.103Z,1010.83
2017-05-20T14:31:00.598Z,1010.81
2017-05-20T14:33:25.055Z,1010.82
2017-05-20T14:35:41.053Z,1010.84
2017-05-20T14:37:57.085Z,1010.88
2017-05-20T14:40:21.537Z,1010.86
2017-05-20T14:42:46.026Z,1010.95
2017-05-20T14:45:10.518Z,1010.89
2017-05-20T14:47:35.007Z,1010.89
2017-05-20T14:49:59.502Z,1010.91
2017-05-20T14:52:15.503Z,1010.92
2017-05-20T14:54:39.987Z,1010.9
2017-05-20T14:57:04.468Z,1010.9
2017-05-20T14:59:20.412Z,1010.94
2017-05-20T15:01:44.852Z,1010.92
2017-05-20T15:04:09.346Z,1010.91
2017-05-20T15:06:02.358Z,1010.94
2017-05-20T15:08:26.900Z,1010.96
2017-05-20T15:10:42.888Z,1011
2017-05-20T15:12:58.814Z,1010.98
2017-05-20T15:15:14.763Z,1011.02
2017-05-20T15:17:39.138Z,1011.07
2017-05-20T15:20:03.529Z,1011.09
2017-05-20T15:22:27.927Z,1011.07
2017-05-20T15:24:29.382Z,1011.1
2017-05-20T15:26:30.908Z,1011.05
2017-05-20T15:28:55.306Z,1011.06
2017-05-20T15:31:19.687Z,1011.08
2017-05-20T15:33:44.093Z,1011.17
2017-05-20T15:36:08.374Z,1011.1
2017-05-20T15:38:24.272Z,1011.09
2017-05-20T15:40:48.656Z,1011.1
2017-05-20T15:43:13.053Z,1011.09
2017-05-20T15:45:37.430Z,1011.12
2017-05-20T15:48:01.818Z,1011.09
2017-05-20T15:50:17.767Z,1011.05
2017-05-20T15:52:42.089Z,1011.08
2017-05-20T15:55:06.492Z,1011.07
2017-05-20T15:57:30.885Z,1011.09
2017-05-20T15:59:55.262Z,1011.13
2017-05-20T16:02:19.667Z,1011.09
2017-05-20T16:04:44.050Z,1011.09
2017-05-20T16:07:08.339Z,1011.19
2017-05-20T16:09:24.227Z,1011.17
2017-05-20T16:11:48.609Z,1011.21
2017-05-20T16:14:04.450Z,1011.23
2017-05-20T16:16:20.367Z,1011.2
2017-05-20T16:18:44.660Z,1011.25
2017-05-20T16:21:08.955Z,1011.18
2017-05-20T16:23:18.990Z,1011.25
2017-05-20T16:25:43.341Z,1011.34
2017-05-20T16:27:59.183Z,1011.3
2017-05-20T16:30:23.397Z,1011.32
2017-05-20T16:32:24.835Z,1011.38
2017-05-20T16:34:49.102Z,1011.3
2017-05-20T16:36:56.442Z,1011.24
2017-05-20T16:39:20.669Z,1011.28
2017-05-20T16:41:22.115Z,1011.24
2017-05-20T16:43:46.443Z,1011.21
2017-05-20T16:46:10.694Z,1011.22
2017-05-20T16:48:26.434Z,1011.18
2017-05-20T16:50:50.658Z,1011.24
2017-05-20T16:53:00.654Z,1011.26
2017-05-20T16:55:24.901Z,1011.29
2017-05-20T16:57:40.646Z,1011.29
2017-05-20T17:00:04.857Z,1011.31
2017-05-20T17:02:20.555Z,1011.3
2017-05-20T17:04:44.734Z,1011.26
2017-05-20T17:06:46.150Z,1011.33
2017-05-20T17:09:10.365Z,1011.32
2017-05-20T17:11:26.162Z,1011.3
2017-05-20T17:13:50.339Z,1011.36
2017-05-20T17:16:14.530Z,1011.39
2017-05-20T17:18:16.529Z,1011.41
2017-05-20T17:20:40.787Z,1011.4
2017-05-20T17:23:04.970Z,1011.43
2017-05-20T17:25:29.155Z,1011.45
2017-05-20T17:27:53.427Z,1011.41
2017-05-20T17:30:17.729Z,1011.47
2017-05-20T17:32:41.917Z,1011.42
2017-05-20T17:35:06.070Z,1011.47
2017-05-20T17:37:16.042Z,1011.45
2017-05-20T17:39:40.331Z,1011.47
2017-05-20T17:41:56.047Z,1011.51
2017-05-20T17:44:20.206Z,1011.49
2017-05-20T17:46:44.377Z,1011.54
2017-05-20T17:49:00.095Z,1011.58
2017-05-20T17:51:24.194Z,1011.54
2017-05-20T17:53:39.855Z,1011.57
2017-05-20T17:55:55.504Z,1011.59
2017-05-20T17:58:19.642Z,1011.58
2017-05-20T18:00:43.761Z,1011.6
2017-05-20T18:02:59.438Z,1011.61
2017-05-20T18:05:23.462Z,1011.66
2017-05-20T18:07:39.097Z,1011.71
2017-05-20T18:09:46.334Z,1011.7
2017-05-20T18:11:47.754Z,1011.77
2017-05-20T18:14:11.860Z,1011.79
2017-05-20T18:16:35.960Z,1011.81
2017-05-20T18:19:00.038Z,1011.81
2017-05-20T18:21:24.109Z,1011.87
2017-05-20T18:23:39.767Z,1011.86
2017-05-20T18:25:55.342Z,1011.87
2017-05-20T18:28:19.402Z,1011.91
2017-05-20T18:30:35.008Z,1011.93
2017-05-20T18:32:59.010Z,1011.93
2017-05-20T18:35:23.014Z,1011.97
2017-05-20T18:37:24.896Z,1011.97
2017-05-20T18:39:40.477Z,1011.97
2017-05-20T18:41:56.054Z,1011.93
2017-05-20T18:44:20.018Z,1011.94
2017-05-20T18:46:44.008Z,1011.94
2017-05-20T18:48:59.562Z,1011.95
2017-05-20T18:51:15.090Z,1011.95
2017-05-20T18:53:39.041Z,1011.98
2017-05-20T18:56:03.055Z,1012
2017-05-20T18:58:18.608Z,1012.02
2017-05-20T19:00:11.601Z,1012.03
2017-05-20T19:02:27.171Z,1012.08
2017-05-20T19:04:51.098Z,1012.08
2017-05-20T19:07:06.604Z,1012.12
2017-05-20T19:09:30.527Z,1012.13
2017-05-20T19:11:54.461Z,1012.15
2017-05-20T19:14:18.411Z,1012.1
2017-05-20T19:17:55.561Z,1012.12
2017-05-20T19:20:19.531Z,1012.1
2017-05-20T19:22:35.041Z,1012.15
2017-05-20T19:24:59.001Z,1012.2
2017-05-20T19:27:22.948Z,1012.26
2017-05-20T19:29:46.876Z,1012.25
2017-05-20T19:32:10.801Z,1012.3
2017-05-20T19:34:34.762Z,1012.3
2017-05-20T19:36:58.697Z,1012.38
2017-05-20T19:39:22.606Z,1012.39
2017-05-20T19:41:46.509Z,1012.41
2017-05-20T19:44:10.420Z,1012.43
2017-05-20T19:46:34.359Z,1012.49
2017-05-20T19:48:49.892Z,1012.52
2017-05-20T19:51:13.786Z,1012.52
2017-05-20T19:53:29.284Z,1012.57
2017-05-20T19:55:53.147Z,1012.57
2017-05-20T19:58:17.036Z,1012.58
2017-05-20T20:00:18.378Z,1012.62
2017-05-20T20:02:42.294Z,1012.62
2017-05-20T20:05:06.180Z,1012.62
2017-05-20T20:07:30.068Z,1012.67
2017-05-20T20:09:45.512Z,1012.67
2017-05-20T20:12:09.392Z,1012.67
2017-05-20T20:14:19.300Z,1012.7
2017-05-20T20:16:43.192Z,1012.72
2017-05-20T20:18:58.671Z,1012.74
2017-05-20T20:21:22.535Z,1012.73
2017-05-20T20:23:37.959Z,1012.77
2017-05-20T20:26:01.803Z,1012.76
2017-05-20T20:28:17.231Z,1012.76
2017-05-20T20:30:41.072Z,1012.78
2017-05-20T20:32:56.523Z,1012.77
2017-05-20T20:35:20.364Z,1012.77
2017-05-20T20:37:27.359Z,1012.82
2017-05-20T20:39:42.745Z,1012.8
2017-05-20T20:41:58.138Z,1012.81
2017-05-20T20:44:07.978Z,1012.83
2017-05-20T20:46:31.824Z,1012.9
2017-05-20T20:48:55.608Z,1012.91
2017-05-20T20:51:19.470Z,1012.92
2017-05-20T20:53:34.891Z,1012.9
2017-05-20T20:55:58.736Z,1012.86
2017-05-20T20:58:22.559Z,1012.86
2017-05-20T21:00:46.360Z,1012.86
2017-05-20T21:03:10.191Z,1012.84
2017-05-20T21:05:34.001Z,1012.9
2017-05-20T21:07:57.834Z,1012.9
2017-05-20T21:10:13.241Z,1012.87
2017-05-20T21:12:37.088Z,1012.89
2017-05-20T21:15:00.901Z,1012.94
2017-05-20T21:17:24.693Z,1012.92
2017-05-20T21:19:48.516Z,1012.94
2017-05-20T21:22:12.302Z,1013.01
2017-05-20T21:24:36.123Z,1012.97
2017-05-20T21:26:59.924Z,1013.01
2017-05-20T21:29:23.702Z,1013.02
2017-05-20T21:31:47.491Z,1013.04
2017-05-20T21:34:11.285Z,1013.04
2017-05-20T21:36:35.045Z,1013.05
2017-05-20T21:38:58.837Z,1013.04
2017-05-20T21:41:22.632Z,1013.08
2017-05-20T21:43:46.482Z,1013.09
2017-05-20T21:45:39.342Z,1013.09
2017-05-20T21:48:03.141Z,1013.09
2017-05-20T21:50:04.421Z,1013.08
2017-05-20T21:52:28.159Z,1013.07
2017-05-20T21:54:51.918Z,1013.13
2017-05-20T21:57:15.675Z,1013.16
2017-05-20T21:59:16.993Z,1013.23
2017-05-20T22:01:40.756Z,1013.22
2017-05-20T22:04:04.489Z,1013.24
2017-05-20T22:06:28.207Z,1013.27
2017-05-20T22:08:51.913Z,1013.32
2017-05-20T22:10:53.260Z,1013.33
2017-05-20T22:13:08.569Z,1013.34
2017-05-20T22:15:32.276Z,1013.38
2017-05-20T22:17:47.587Z,1013.4
2017-05-20T22:20:11.290Z,1013.4
2017-05-20T22:22:34.994Z,1013.37
2017-05-20T22:24:58.712Z,1013.36
2017-05-20T22:27:22.399Z,1013.4
2017-05-20T22:29:46.113Z,1013.38
2017-05-20T22:32:09.824Z,1013.42
2017-05-20T22:34:33.507Z,1013.46
2017-05-20T22:36:57.217Z,1013.51
2017-05-20T22:39:20.934Z,1013.56
2017-05-20T22:41:44.643Z,1013.52
2017-05-20T22:44:08.386Z,1013.54
2017-05-20T22:46:32.039Z,1013.5
2017-05-20T22:48:55.690Z,1013.56
2017-05-20T22:51:10.945Z,1013.58
2017-05-20T22:53:34.652Z,1013.63
2017-05-20T22:55:49.903Z,1013.63
2017-05-20T22:58:13.568Z,1013.59
2017-05-20T23:00:37.220Z,1013.6
2017-05-20T23:02:52.452Z,1013.62
2017-05-20T23:05:16.108Z,1013.62
2017-05-20T23:07:39.794Z,1013.6
2017-05-20T23:10:03.490Z,1013.63
2017-05-20T23:12:27.135Z,1013.6
2017-05-20T23:14:50.830Z,1013.62
2017-05-20T23:16:52.108Z,1013.62
2017-05-20T23:19:15.836Z,1013.6
2017-05-20T23:21:39.522Z,1013.62
2017-05-20T23:23:40.817Z,1013.61
2017-05-20T23:25:42.069Z,1013.61
2017-05-20T23:28:05.758Z,1013.6
2017-05-20T23:30:29.437Z,1013.61
2017-05-20T23:32:39.263Z,1013.66
2017-05-20T23:35:02.916Z,1013.6
2017-05-20T23:37:26.567Z,1013.61
2017-05-20T23:39:50.199Z,1013.61
2017-05-20T23:42:13.856Z,1013.6
2017-05-20T23:44:29.028Z,1013.53
2017-05-20T23:46:52.755Z,1013.58
2017-05-20T23:49:16.391Z,1013.56
2017-05-20T23:51:40.042Z,1013.58
2017-05-20T23:54:03.696Z,1013.59
2017-05-20T23:56:27.292Z,1013.61
2017-05-20T23:58:42.547Z,1013.57
